Time,TemperatureF,DewpointF,PressureIn,WindDirection,WindDirectionDegrees,WindSpeedMPH,WindSpeedGustMPH,Humidity,HourlyPrecipIn,Conditions,Clouds,dailyrainin,SoftwareType,DateUTC
2013-03-21 00:03:00,61.0,54.0,29.86,North,0,0.0,0.0,78,0.48,,,-99.99,,2013-03-21 04:03:00,
2013-03-21 00:13:00,61.0,54.0,29.86,North,0,0.0,0.0,78,0.48,,,-99.99,,2013-03-21 04:13:00,
2013-03-21 00:23:00,61.0,55.0,29.87,SE,139,0.0,2.0,80,0.48,,,-99.99,,2013-03-21 04:23:00,
2013-03-21 00:33:00,60.0,55.0,29.87,WSW,238,3.0,4.0,84,0.48,,,-99.99,,2013-03-21 04:33:00,
2013-03-21 00:43:00,60.0,55.0,29.87,WSW,238,3.0,4.0,84,0.48,,,-99.99,,2013-03-21 04:43:00,
2013-03-21 00:53:00,60.0,59.0,29.88,NNW,338,8.0,11.0,96,0.48,,,-99.99,,2013-03-21 04:53:00,
2013-03-21 01:03:00,60.0,58.0,29.87,NNW,329,6.0,9.0,93,0.48,,,-99.99,,2013-03-21 05:03:00,
2013-03-21 01:12:00,60.0,58.0,29.87,NNW,329,6.0,9.0,93,0.48,,,-99.99,,2013-03-21 05:12:00,
2013-03-21 01:22:00,60.0,57.0,29.87,NW,316,3.0,4.0,91,0.48,,,-99.99,,2013-03-21 05:22:00,
2013-03-21 01:32:00,60.0,57.0,29.87,WNW,301,5.0,7.0,90,0.48,,,-99.99,,2013-03-21 05:32:00,
2013-03-21 01:43:00,60.0,57.0,29.87,NNW,328,7.0,9.0,89,0.48,,,-99.99,,2013-03-21 05:43:00,
2013-03-21 01:52:00,60.0,57.0,29.87,NNW,328,7.0,9.0,89,0.48,,,-99.99,,2013-03-21 05:52:00,
2013-03-21 02:03:00,60.0,60.0,29.88,NNW,328,8.0,13.0,100,0.48,,,-99.99,,2013-03-21 06:03:00,
2013-03-21 02:12:00,60.0,60.0,29.88,NNW,328,8.0,13.0,100,0.48,,,-99.99,,2013-03-21 06:12:00,
2013-03-21 02:22:00,59.0,59.0,29.87,North,350,8.0,12.0,100,0.48,,,-99.99,,2013-03-21 06:22:00,
2013-03-21 02:32:00,59.0,59.0,29.87,NNW,339,8.0,12.0,100,0.48,,,-99.99,,2013-03-21 06:32:00,
2013-03-21 02:42:00,59.0,59.0,29.87,NNW,339,8.0,12.0,100,0.48,,,-99.99,,2013-03-21 06:42:00,
2013-03-21 02:52:00,58.0,58.0,29.87,NW,319,9.0,14.0,100,0.48,,,-99.99,,2013-03-21 06:52:00,
2013-03-21 03:02:00,58.0,58.0,29.88,NW,326,10.0,15.0,100,0.48,,,-99.99,,2013-03-21 07:02:00,
2013-03-21 03:12:00,58.0,58.0,29.88,NW,326,10.0,15.0,100,0.48,,,-99.99,,2013-03-21 07:12:00,
2013-03-21 03:22:00,58.0,58.0,29.88,NW,325,8.0,12.0,100,0.48,,,-99.99,,2013-03-21 07:22:00,
2013-03-21 03:32:00,57.0,57.0,29.88,NNW,336,9.0,14.0,100,0.48,,,-99.99,,2013-03-21 07:32:00,
2013-03-21 03:42:00,57.0,57.0,29.88,NNW,336,9.0,14.0,100,0.48,,,-99.99,,2013-03-21 07:42:00,
2013-03-21 03:52:00,56.0,56.0,29.88,North,349,10.0,16.0,100,0.48,,,-99.99,,2013-03-21 07:52:00,
2013-03-21 04:02:00,56.0,56.0,29.88,NNW,340,10.0,14.0,100,0.48,,,-99.99,,2013-03-21 08:02:00,
2013-03-21 04:13:00,56.0,56.0,29.88,NW,326,8.0,12.0,100,0.48,,,-99.99,,2013-03-21 08:13:00,
2013-03-21 04:23:00,56.0,56.0,29.88,NW,326,8.0,12.0,100,0.48,,,-99.99,,2013-03-21 08:23:00,
2013-03-21 04:33:00,56.0,56.0,29.88,NW,316,7.0,11.0,100,0.48,,,-99.99,,2013-03-21 08:33:00,
2013-03-21 04:42:00,56.0,56.0,29.88,NW,316,7.0,11.0,100,0.48,,,-99.99,,2013-03-21 08:42:00,
2013-03-21 04:52:00,55.0,55.0,29.88,NW,321,7.0,12.0,100,0.48,,,-99.99,,2013-03-21 08:52:00,
2013-03-21 05:02:00,55.0,55.0,29.88,NNW,332,7.0,11.0,100,0.48,,,-99.99,,2013-03-21 09:02:00,
2013-03-21 05:11:00,55.0,55.0,29.88,NNW,332,7.0,11.0,100,0.48,,,-99.99,,2013-03-21 09:11:00,
2013-03-21 05:21:00,55.0,55.0,29.88,NNW,330,7.0,12.0,100,0.48,,,-99.99,,2013-03-21 09:21:00,
2013-03-21 05:33:00,54.0,54.0,29.88,NNW,328,8.0,11.0,100,0.48,,,-99.99,,2013-03-21 09:33:00,
2013-03-21 05:43:00,54.0,54.0,29.88,NNW,328,8.0,11.0,100,0.48,,,-99.99,,2013-03-21 09:43:00,
2013-03-21 05:53:00,54.0,54.0,29.89,NNW,332,8.0,11.0,100,0.48,,,-99.99,,2013-03-21 09:53:00,
2013-03-21 06:03:00,54.0,54.0,29.89,NNW,339,6.0,10.0,99,0.48,,,-99.99,,2013-03-21 10:03:00,
2013-03-21 06:12:00,54.0,54.0,29.89,NNW,339,6.0,10.0,99,0.48,,,-99.99,,2013-03-21 10:12:00,
2013-03-21 06:23:00,53.0,53.0,29.90,NNW,343,8.0,10.0,100,0.48,,,-99.99,,2013-03-21 10:23:00,
2013-03-21 06:33:00,53.0,52.0,29.90,NNW,335,8.0,13.0,96,0.48,,,-99.99,,2013-03-21 10:33:00,
2013-03-21 06:42:00,53.0,52.0,29.90,NNW,335,8.0,13.0,96,0.48,,,-99.99,,2013-03-21 10:42:00,
2013-03-21 06:53:00,53.0,51.0,29.91,NNW,342,9.0,13.0,92,0.48,,,-99.99,,2013-03-21 10:53:00,
2013-03-21 07:03:00,52.0,49.0,29.91,NNW,339,7.0,10.0,89,0.48,,,-99.99,,2013-03-21 11:03:00,
2013-03-21 07:12:00,52.0,49.0,29.91,NNW,339,7.0,10.0,89,0.48,,,-99.99,,2013-03-21 11:12:00,
2013-03-21 07:22:00,52.0,49.0,29.91,North,349,7.0,10.0,89,0.48,,,-99.99,,2013-03-21 11:22:00,
2013-03-21 07:33:00,51.0,47.0,29.92,NNW,343,7.0,10.0,87,0.48,,,-99.99,,2013-03-21 11:33:00,
2013-03-21 07:43:00,51.0,47.0,29.92,NNW,343,7.0,10.0,87,0.48,,,-99.99,,2013-03-21 11:43:00,
2013-03-21 07:52:00,51.0,47.0,29.93,North,349,7.0,9.0,86,0.48,,,-99.99,,2013-03-21 11:52:00,
2013-03-21 08:03:00,51.0,47.0,29.93,NNW,347,6.0,9.0,87,0.48,,,-99.99,,2013-03-21 12:03:00,
2013-03-21 08:12:00,51.0,47.0,29.93,NNW,347,6.0,9.0,87,0.48,,,-99.99,,2013-03-21 12:12:00,
2013-03-21 08:22:00,50.0,46.0,29.93,NNW,335,3.0,5.0,87,0.48,,,-99.99,,2013-03-21 12:22:00,
2013-03-21 08:33:00,51.0,46.0,29.93,NNW,345,5.0,8.0,84,0.48,,,-99.99,,2013-03-21 12:33:00,
2013-03-21 08:42:00,51.0,46.0,29.93,NNW,345,5.0,8.0,84,0.48,,,-99.99,,2013-03-21 12:42:00,
2013-03-21 08:53:00,52.0,46.0,29.94,North,352,4.0,7.0,80,0.48,,,-99.99,,2013-03-21 12:53:00,
2013-03-21 09:02:00,52.0,45.0,29.94,North,354,8.0,13.0,78,0.48,,,-99.99,,2013-03-21 13:02:00,
2013-03-21 09:12:00,52.0,45.0,29.94,North,354,8.0,13.0,78,0.48,,,-99.99,,2013-03-21 13:12:00,
2013-03-21 09:22:00,53.0,45.0,29.95,North,350,6.0,11.0,75,0.48,,,-99.99,,2013-03-21 13:22:00,
2013-03-21 09:32:00,55.0,44.0,29.95,North,352,7.0,11.0,66,0.48,,,-99.99,,2013-03-21 13:32:00,
2013-03-21 09:42:00,55.0,44.0,29.95,North,352,7.0,11.0,66,0.48,,,-99.99,,2013-03-21 13:42:00,
2013-03-21 09:53:00,56.0,41.0,29.95,North,353,8.0,15.0,56,0.48,,,-99.99,,2013-03-21 13:53:00,
2013-03-21 10:02:00,57.0,39.0,29.96,NNW,340,8.0,13.0,51,0.48,,,-99.99,,2013-03-21 14:02:00,
2013-03-21 10:12:00,58.0,38.0,29.95,North,353,7.0,14.0,48,0.48,,,-99.99,,2013-03-21 14:12:00,
2013-03-21 10:22:00,58.0,38.0,29.95,North,353,7.0,14.0,48,0.48,,,-99.99,,2013-03-21 14:22:00,
2013-03-21 10:32:00,59.0,38.0,29.96,NNW,343,10.0,16.0,45,0.48,,,-99.99,,2013-03-21 14:32:00,
2013-03-21 10:42:00,59.0,38.0,29.96,NNW,343,10.0,16.0,45,0.48,,,-99.99,,2013-03-21 14:42:00,
2013-03-21 10:52:00,59.0,36.0,29.95,NNW,343,11.0,21.0,42,0.48,,,-99.99,,2013-03-21 14:52:00,
2013-03-21 11:04:00,59.0,38.0,29.95,NNW,333,8.0,17.0,45,0.48,,,-99.99,,2013-03-21 15:04:00,
2013-03-21 11:12:00,60.0,36.0,29.96,NNW,342,9.0,15.0,40,0.48,,,-99.99,,2013-03-21 15:12:00,
2013-03-21 11:22:00,60.0,36.0,29.96,NNW,342,9.0,15.0,40,0.48,,,-99.99,,2013-03-21 15:22:00,
2013-03-21 11:33:00,60.0,34.0,29.96,North,350,8.0,13.0,38,0.48,,,-99.99,,2013-03-21 15:33:00,
2013-03-21 11:42:00,60.0,34.0,29.96,North,350,8.0,13.0,38,0.48,,,-99.99,,2013-03-21 15:42:00,
2013-03-21 11:53:00,60.0,34.0,29.96,North,350,8.0,13.0,38,0.48,,,-99.99,,2013-03-21 15:53:00,
2013-03-21 12:03:00,61.0,36.0,29.97,NNW,336,10.0,17.0,40,0.48,,,-99.99,,2013-03-21 16:03:00,
2013-03-21 12:12:00,61.0,36.0,29.97,NNW,336,10.0,17.0,40,0.48,,,-99.99,,2013-03-21 16:12:00,
2013-03-21 12:23:00,61.0,34.0,29.98,NNW,339,10.0,17.0,36,0.48,,,-99.99,,2013-03-21 16:23:00,
2013-03-21 12:33:00,62.0,33.0,29.98,NNW,328,8.0,15.0,33,0.48,,,-99.99,,2013-03-21 16:33:00,
2013-03-21 12:42:00,62.0,33.0,29.98,NNW,328,8.0,15.0,33,0.48,,,-99.99,,2013-03-21 16:42:00,
2013-03-21 12:53:00,63.0,36.0,29.98,West,278,6.0,9.0,37,0.48,,,-99.99,,2013-03-21 16:53:00,
2013-03-21 13:02:00,63.0,36.0,29.97,NW,319,9.0,12.0,36,0.48,,,-99.99,,2013-03-21 17:02:00,
2013-03-21 13:12:00,63.0,36.0,29.97,NW,319,9.0,12.0,36,0.48,,,-99.99,,2013-03-21 17:12:00,
2013-03-21 13:23:00,64.0,34.0,29.96,NW,314,9.0,13.0,32,0.48,,,-99.99,,2013-03-21 17:23:00,
2013-03-21 13:33:00,64.0,33.0,29.95,NNW,340,5.0,10.0,31,0.48,,,-99.99,,2013-03-21 17:33:00,
2013-03-21 13:43:00,64.0,33.0,29.95,NNW,340,5.0,10.0,31,0.48,,,-99.99,,2013-03-21 17:43:00,
2013-03-21 13:53:00,65.0,34.0,29.94,WNW,297,8.0,16.0,32,0.48,,,-99.99,,2013-03-21 17:53:00,
2013-03-21 14:02:00,66.0,34.0,29.94,WNW,294,6.0,10.0,31,0.48,,,-99.99,,2013-03-21 18:02:00,
2013-03-21 14:12:00,66.0,34.0,29.94,WNW,294,6.0,10.0,31,0.48,,,-99.99,,2013-03-21 18:12:00,
2013-03-21 14:23:00,65.0,32.0,29.93,WNW,290,10.0,16.0,29,0.48,,,-99.99,,2013-03-21 18:23:00,
2013-03-21 14:32:00,66.0,33.0,29.92,NNW,343,7.0,12.0,29,0.48,,,-99.99,,2013-03-21 18:32:00,
2013-03-21 14:42:00,67.0,35.0,29.92,West,270,6.0,10.0,31,0.48,,,-99.99,,2013-03-21 18:42:00,
2013-03-21 14:52:00,67.0,35.0,29.92,West,270,6.0,10.0,31,0.48,,,-99.99,,2013-03-21 18:52:00,
2013-03-21 15:02:00,67.0,35.0,29.92,NW,304,7.0,13.0,31,0.48,,,-99.99,,2013-03-21 19:02:00,
2013-03-21 15:12:00,67.0,35.0,29.92,NW,304,7.0,13.0,31,0.48,,,-99.99,,2013-03-21 19:12:00,
2013-03-21 15:22:00,67.0,35.0,29.91,NW,315,5.0,14.0,30,0.48,,,-99.99,,2013-03-21 19:22:00,
2013-03-21 15:32:00,67.0,33.0,29.90,NW,325,9.0,15.0,28,0.48,,,-99.99,,2013-03-21 19:32:00,
2013-03-21 15:42:00,67.0,33.0,29.90,NW,325,9.0,15.0,28,0.48,,,-99.99,,2013-03-21 19:42:00,
2013-03-21 15:53:00,68.0,33.0,29.90,NW,307,3.0,9.0,27,0.48,,,-99.99,,2013-03-21 19:53:00,
2013-03-21 16:02:00,68.0,29.0,29.89,NW,325,10.0,15.0,23,0.48,,,-99.99,,2013-03-21 20:02:00,
2013-03-21 16:12:00,68.0,29.0,29.89,NW,325,10.0,15.0,23,0.48,,,-99.99,,2013-03-21 20:12:00,
2013-03-21 16:22:00,69.0,29.0,29.89,NW,307,7.0,17.0,22,0.48,,,-99.99,,2013-03-21 20:22:00,
2013-03-21 16:33:00,69.0,27.0,29.88,NW,307,9.0,15.0,21,0.48,,,-99.99,,2013-03-21 20:33:00,
2013-03-21 16:42:00,69.0,27.0,29.88,NW,307,9.0,15.0,21,0.48,,,-99.99,,2013-03-21 20:42:00,
2013-03-21 16:53:00,69.0,27.0,29.88,WNW,294,10.0,17.0,21,0.48,,,-99.99,,2013-03-21 20:53:00,
2013-03-21 17:02:00,70.0,32.0,29.88,WNW,285,10.0,17.0,24,0.48,,,-99.99,,2013-03-21 21:02:00,
2013-03-21 17:12:00,70.0,32.0,29.88,WNW,285,10.0,17.0,24,0.48,,,-99.99,,2013-03-21 21:12:00,
2013-03-21 17:22:00,70.0,33.0,29.88,West,281,7.0,12.0,25,0.48,,,-99.99,,2013-03-21 21:22:00,
2013-03-21 17:33:00,70.0,32.0,29.88,NW,314,8.0,14.0,24,0.48,,,-99.99,,2013-03-21 21:33:00,
2013-03-21 17:43:00,70.0,32.0,29.88,NW,314,8.0,14.0,24,0.48,,,-99.99,,2013-03-21 21:43:00,
2013-03-21 17:53:00,70.0,32.0,29.88,NW,326,7.0,10.0,24,0.48,,,-99.99,,2013-03-21 21:53:00,
2013-03-21 18:03:00,70.0,32.0,29.88,WNW,287,7.0,10.0,24,0.48,,,-99.99,,2013-03-21 22:03:00,
2013-03-21 18:13:00,70.0,32.0,29.88,WNW,287,7.0,10.0,24,0.48,,,-99.99,,2013-03-21 22:13:00,
2013-03-21 18:23:00,70.0,29.0,29.88,WNW,284,8.0,12.0,22,0.48,,,-99.99,,2013-03-21 22:23:00,
2013-03-21 18:33:00,70.0,30.0,29.89,West,267,5.0,6.0,23,0.48,,,-99.99,,2013-03-21 22:33:00,
2013-03-21 18:42:00,70.0,30.0,29.89,West,267,5.0,6.0,23,0.48,,,-99.99,,2013-03-21 22:42:00,
2013-03-21 18:53:00,71.0,31.0,29.88,West,267,6.0,8.0,23,0.48,,,-99.99,,2013-03-21 22:53:00,
2013-03-21 19:02:00,69.0,29.0,29.89,WNW,288,8.0,13.0,22,0.48,,,-99.99,,2013-03-21 23:02:00,
2013-03-21 19:12:00,69.0,29.0,29.89,WNW,288,8.0,13.0,22,0.48,,,-99.99,,2013-03-21 23:12:00,
2013-03-21 19:22:00,69.0,32.0,29.90,NW,305,6.0,10.0,25,0.48,,,-99.99,,2013-03-21 23:22:00,
2013-03-21 19:32:00,69.0,32.0,29.89,West,281,4.0,8.0,25,0.48,,,-99.99,,2013-03-21 23:32:00,
2013-03-21 19:42:00,69.0,32.0,29.89,West,281,4.0,8.0,25,0.48,,,-99.99,,2013-03-21 23:42:00,
2013-03-21 19:53:00,68.0,33.0,29.89,WNW,283,3.0,5.0,27,0.48,,,-99.99,,2013-03-21 23:53:00,
2013-03-21 20:03:00,66.0,34.0,29.90,WNW,297,5.0,8.0,30,0.48,,,-99.99,,2013-03-22 00:03:00,
2013-03-21 20:12:00,66.0,34.0,29.90,WNW,297,5.0,8.0,30,0.48,,,-99.99,,2013-03-22 00:12:00,
2013-03-21 20:22:00,63.0,33.0,29.91,WNW,295,8.0,12.0,32,0.48,,,-99.99,,2013-03-22 00:22:00,
2013-03-21 20:32:00,63.0,31.0,29.91,WNW,295,9.0,14.0,30,0.48,,,-99.99,,2013-03-22 00:32:00,
2013-03-21 20:42:00,63.0,31.0,29.91,WNW,295,9.0,14.0,30,0.48,,,-99.99,,2013-03-22 00:42:00,
2013-03-21 20:52:00,62.0,33.0,29.91,NW,305,7.0,9.0,33,0.48,,,-99.99,,2013-03-22 00:52:00,
2013-03-21 21:02:00,60.0,32.0,29.92,NW,304,7.0,8.0,35,0.48,,,-99.99,,2013-03-22 01:02:00,
2013-03-21 21:12:00,60.0,32.0,29.92,NW,304,7.0,8.0,35,0.48,,,-99.99,,2013-03-22 01:12:00,
2013-03-21 21:22:00,60.0,33.0,29.92,NW,305,6.0,9.0,36,0.48,,,-99.99,,2013-03-22 01:22:00,
2013-03-21 21:32:00,59.0,33.0,29.92,WNW,300,5.0,7.0,37,0.48,,,-99.99,,2013-03-22 01:32:00,
2013-03-21 21:43:00,59.0,33.0,29.92,WNW,300,5.0,7.0,37,0.48,,,-99.99,,2013-03-22 01:43:00,
2013-03-21 21:53:00,59.0,35.0,29.93,NW,308,6.0,9.0,40,0.48,,,-99.99,,2013-03-22 01:53:00,
2013-03-21 22:02:00,57.0,35.0,29.93,WNW,297,6.0,8.0,43,0.48,,,-99.99,,2013-03-22 02:02:00,
2013-03-21 22:12:00,57.0,35.0,29.93,WNW,297,6.0,8.0,43,0.48,,,-99.99,,2013-03-22 02:12:00,
2013-03-21 22:22:00,57.0,35.0,29.94,WNW,300,6.0,8.0,43,0.48,,,-99.99,,2013-03-22 02:22:00,
2013-03-21 22:32:00,56.0,36.0,29.95,WNW,297,6.0,10.0,46,0.48,,,-99.99,,2013-03-22 02:32:00,
2013-03-21 22:43:00,56.0,36.0,29.95,WNW,297,6.0,10.0,46,0.48,,,-99.99,,2013-03-22 02:43:00,
2013-03-21 22:52:00,56.0,37.0,29.94,NW,309,7.0,10.0,49,0.48,,,-99.99,,2013-03-22 02:52:00,
2013-03-21 23:02:00,55.0,38.0,29.95,WNW,295,8.0,11.0,53,0.48,,,-99.99,,2013-03-22 03:02:00,
2013-03-21 23:12:00,55.0,38.0,29.95,WNW,295,8.0,11.0,53,0.48,,,-99.99,,2013-03-22 03:12:00,
2013-03-21 23:22:00,55.0,40.0,29.95,NNW,336,5.0,7.0,56,0.48,,,-99.99,,2013-03-22 03:22:00,
2013-03-21 23:33:00,54.0,40.0,29.95,NW,312,5.0,9.0,59,0.48,,,-99.99,,2013-03-22 03:33:00,
2013-03-21 23:43:00,54.0,40.0,29.95,NW,312,5.0,9.0,59,0.48,,,-99.99,,2013-03-22 03:43:00,
2013-03-21 23:53:00,53.0,40.0,29.95,NNW,345,5.0,7.0,62,0.48,,,-99.99,,2013-03-22 03:53:00,